Flight Track Log - Related Links

Times and Time Zones

All times are in EDT time to prevent confusion due to time zone crossing. See the UAL5999 flight status page for this flight to view local times or setup timezone preferences in your user account.

Time Position Orientation Groundspeed Altitude Reporting Facility
EDT Latitude Longitude Course Direction KTS MPH feet Rate Location/Type
Thu 07:12:09 AM 44.4200 -88.0450 180° South 210 242 5,800  Level Minneapolis Center
Thu 07:13:09 AM 44.3508 -88.0531 185° South 238 274 7,900 2,182 Climbing Minneapolis Center
Thu 07:14:10 AM 44.2739 -88.0572 182° South 271 312 10,200 1,934 Climbing Minneapolis Center
Thu 07:15:00 AM 44.2257 -88.1659 176° South  Level FlightAware Approximate
Thu 07:15:10 AM 44.1942 -88.0636 183° South 284 327 11,800  Level Minneapolis Center
Thu 07:16:00 AM 44.1446 -88.1578 176° South  Level FlightAware Approximate
Thu 07:16:11 AM 44.1053 -88.0706 183° South 314 361 13,100  Level Minneapolis Center
Thu 07:17:00 AM 44.0634 -88.1500 180° South  Level FlightAware Approximate
Thu 07:17:12 AM 44.0069 -88.0789 183° South 349 402 13,100  Level Minneapolis Center
Thu 07:18:12 AM 43.9092 -88.0872 184° South 351 404 13,100  Level Minneapolis Center
Thu 07:19:13 AM 43.8097 -88.0939 183° South 356 410 13,100  Level Minneapolis Center
Thu 07:20:13 AM 43.7061 -88.1031 184° South 367 422 13,100  Level Minneapolis Center
Thu 07:21:14 AM 43.6036 -88.1111 183° South 367 422 13,100 -67 Level Minneapolis Center
Thu 07:21:42 AM 43.5500 -88.1167 184° South 339 390 13,000 -91 Descending KMKE
Thu 07:22:20 AM 43.5089 -88.1189 182° South 343 395 13,000  Level Chicago Center
Thu 07:23:20 AM 43.4131 -88.1242 182° South 341 392 13,000  Level Chicago Center
Thu 07:24:21 AM 43.3175 -88.1114 174° South 341 392 13,000  Level Chicago Center
Thu 07:25:22 AM 43.2222 -88.0972 174° South 342 394 13,000  Level Chicago Center
Thu 07:26:22 AM 43.1144 -88.0764 172° South 336 387 13,000 -50 Level Chicago Center
Thu 07:27:23 AM 43.0361 -88.0569 170° South 289 333 12,900 -300 Descending Chicago Center
Thu 07:27:42 AM 43.0167 -88.0500 165° South 272 313 12,600 -904 Descending KMKE
Thu 07:28:36 AM 42.9500 -88.0500 180° South 268 308 11,800 -1,000 Descending KMKE
Thu 07:29:36 AM 42.8833 -88.0667 190° South 245 282 10,700 -1,046 Descending KMKE
Thu 07:30:25 AM 42.8256 -88.0850 193° South 239 275 9,900 -991 Descending Chicago Center
Thu 07:31:25 AM 42.7633 -88.0997 190° South 228 262 8,900 -942 Descending Chicago Center
Thu 07:32:26 AM 42.6989 -88.1133 189° South 231 266 8,000 -443 Descending Chicago Center
Thu 07:33:27 AM 42.6294 -88.1153 181° South 255 293 8,000  Level Chicago Center
Thu 07:34:28 AM 42.5583 -88.0914 166° South 262 302 8,000  Level Chicago Center
Thu 07:35:28 AM 42.4847 -88.0697 168° South 268 308 8,000  Level Chicago Center
Thu 07:36:29 AM 42.4122 -88.0517 170° South 265 305 8,000  Level Chicago Center
Thu 07:37:30 AM 42.3439 -88.0553 182° South 248 285 8,000 -639 Level Chicago Center
Thu 07:38:31 AM 42.2756 -88.0786 194° South 251 289 6,700 -1,388 Descending Chicago Center
Thu 07:39:31 AM 42.2133 -88.1183 205° Southwest 246 283 5,200 -1,339 Descending Chicago Center
Thu 07:40:32 AM 42.1481 -88.1653 208° Southwest 257 296 4,000 -590 Descending Chicago Center
Thu 07:41:33 AM 42.0861 -88.2047 205° Southwest 255 293 4,000 -246 Level Chicago Center
Thu 07:42:34 AM 42.0339 -88.1869 166° South 216 249 3,500 -738 Descending Chicago Center
Thu 07:43:35 AM 41.9814 -88.1550 156° South 208 239 2,500 -638 Descending Chicago Center
Thu 07:44:08 AM 41.9667 -88.1000 110° East 188 216 2,500  Level Chicago TRACON

Login

Don't have an account? Register now (free) for customized features, flight alerts, and more!